sensor_id;sensor_type;location;lat;lon;timestamp;P1;durP1;ratioP1;P2;durP2;ratioP2
77888;SDS011;67082;41.704;44.768;2023-02-22T00:02:03;2.20;;;1.40;;
77888;SDS011;67082;41.704;44.768;2023-02-22T00:04:38;1.92;;;1.20;;
77888;SDS011;67082;41.704;44.768;2023-02-22T00:07:06;2.05;;;1.23;;
77888;SDS011;67082;41.704;44.768;2023-02-22T00:09:34;1.60;;;1.10;;
77888;SDS011;67082;41.704;44.768;2023-02-22T00:12:02;1.98;;;1.30;;
77888;SDS011;67082;41.704;44.768;2023-02-22T00:14:31;1.60;;;1.17;;
77888;SDS011;67082;41.704;44.768;2023-02-22T00:16:58;2.08;;;1.10;;
77888;SDS011;67082;41.704;44.768;2023-02-22T00:19:27;2.22;;;1.23;;
77888;SDS011;67082;41.704;44.768;2023-02-22T00:21:57;2.03;;;1.20;;
77888;SDS011;67082;41.704;44.768;2023-02-22T00:24:26;1.70;;;1.20;;
77888;SDS011;67082;41.704;44.768;2023-02-22T00:26:56;2.28;;;1.27;;
77888;SDS011;67082;41.704;44.768;2023-02-22T00:29:24;1.73;;;1.05;;
77888;SDS011;67082;41.704;44.768;2023-02-22T00:31:53;2.00;;;1.15;;
77888;SDS011;67082;41.704;44.768;2023-02-22T00:34:24;1.80;;;1.15;;
77888;SDS011;67082;41.704;44.768;2023-02-22T00:36:52;1.75;;;1.20;;
77888;SDS011;67082;41.704;44.768;2023-02-22T00:39:21;1.95;;;1.30;;
77888;SDS011;67082;41.704;44.768;2023-02-22T00:41:49;1.95;;;1.30;;
77888;SDS011;67082;41.704;44.768;2023-02-22T00:44:18;1.50;;;1.00;;
77888;SDS011;67082;41.704;44.768;2023-02-22T00:46:46;2.22;;;1.27;;
77888;SDS011;67082;41.704;44.768;2023-02-22T00:49:16;1.98;;;1.30;;
77888;SDS011;67082;41.704;44.768;2023-02-22T00:51:44;1.92;;;1.20;;
77888;SDS011;67082;41.704;44.768;2023-02-22T00:54:12;1.95;;;1.40;;
77888;SDS011;67082;41.704;44.768;2023-02-22T00:56:40;1.95;;;1.40;;
77888;SDS011;67082;41.704;44.768;2023-02-22T00:59:10;2.22;;;1.30;;
77888;SDS011;67082;41.704;44.768;2023-02-22T01:01:38;3.08;;;1.65;;
77888;SDS011;67082;41.704;44.768;2023-02-22T01:04:06;2.53;;;1.75;;
77888;SDS011;67082;41.704;44.768;2023-02-22T01:06:34;2.05;;;1.38;;
77888;SDS011;67082;41.704;44.768;2023-02-22T01:09:03;2.30;;;1.50;;
77888;SDS011;67082;41.704;44.768;2023-02-22T01:11:34;2.38;;;1.58;;
77888;SDS011;67082;41.704;44.768;2023-02-22T01:14:02;3.00;;;1.48;;
77888;SDS011;67082;41.704;44.768;2023-02-22T01:16:30;2.25;;;1.58;;
77888;SDS011;67082;41.704;44.768;2023-02-22T01:18:58;2.20;;;1.50;;
77888;SDS011;67082;41.704;44.768;2023-02-22T01:21:28;2.20;;;1.40;;
77888;SDS011;67082;41.704;44.768;2023-02-22T01:23:56;1.92;;;1.25;;
77888;SDS011;67082;41.704;44.768;2023-02-22T01:26:25;2.30;;;1.48;;
77888;SDS011;67082;41.704;44.768;2023-02-22T01:28:53;3.10;;;1.50;;
77888;SDS011;67082;41.704;44.768;2023-02-22T01:31:21;1.63;;;1.00;;
77888;SDS011;67082;41.704;44.768;2023-02-22T01:33:51;2.75;;;1.30;;
77888;SDS011;67082;41.704;44.768;2023-02-22T01:36:20;2.08;;;1.27;;
77888;SDS011;67082;41.704;44.768;2023-02-22T01:38:49;2.30;;;1.27;;
77888;SDS011;67082;41.704;44.768;2023-02-22T01:41:17;2.97;;;1.40;;
77888;SDS011;67082;41.704;44.768;2023-02-22T01:43:45;1.92;;;1.27;;
77888;SDS011;67082;41.704;44.768;2023-02-22T01:46:23;2.88;;;1.70;;
77888;SDS011;67082;41.704;44.768;2023-02-22T01:48:55;2.22;;;1.40;;
77888;SDS011;67082;41.704;44.768;2023-02-22T01:51:35;1.90;;;1.30;;
77888;SDS011;67082;41.704;44.768;2023-02-22T01:54:09;2.25;;;1.38;;
77888;SDS011;67082;41.704;44.768;2023-02-22T01:56:48;2.25;;;1.45;;
77888;SDS011;67082;41.704;44.768;2023-02-22T01:59:21;2.20;;;1.40;;
77888;SDS011;67082;41.704;44.768;2023-02-22T02:01:50;2.83;;;1.40;;
77888;SDS011;67082;41.704;44.768;2023-02-22T02:04:19;2.53;;;1.60;;
77888;SDS011;67082;41.704;44.768;2023-02-22T02:06:54;2.17;;;1.60;;
77888;SDS011;67082;41.704;44.768;2023-02-22T02:12:11;1.90;;;1.30;;
77888;SDS011;67082;41.704;44.768;2023-02-22T02:14:42;2.40;;;1.60;;
77888;SDS011;67082;41.704;44.768;2023-02-22T02:17:11;2.97;;;1.70;;
77888;SDS011;67082;41.704;44.768;2023-02-22T02:19:55;2.75;;;1.70;;
77888;SDS011;67082;41.704;44.768;2023-02-22T02:34:18;3.38;;;1.73;;
77888;SDS011;67082;41.704;44.768;2023-02-22T02:37:05;3.13;;;2.15;;
77888;SDS011;67082;41.704;44.768;2023-02-22T02:39:49;3.08;;;2.10;;
77888;SDS011;67082;41.704;44.768;2023-02-22T02:42:20;3.80;;;2.15;;
77888;SDS011;67082;41.704;44.768;2023-02-22T02:47:26;3.05;;;2.20;;
77888;SDS011;67082;41.704;44.768;2023-02-22T02:50:41;4.15;;;2.42;;
77888;SDS011;67082;41.704;44.768;2023-02-22T02:52:56;4.35;;;2.30;;
77888;SDS011;67082;41.704;44.768;2023-02-22T02:55:28;3.30;;;2.30;;
77888;SDS011;67082;41.704;44.768;2023-02-22T02:57:59;4.32;;;2.88;;
77888;SDS011;67082;41.704;44.768;2023-02-22T03:00:27;3.40;;;2.42;;
77888;SDS011;67082;41.704;44.768;2023-02-22T03:05:59;3.72;;;2.67;;
77888;SDS011;67082;41.704;44.768;2023-02-22T03:08:51;3.33;;;2.33;;
77888;SDS011;67082;41.704;44.768;2023-02-22T03:11:30;4.38;;;2.55;;
77888;SDS011;67082;41.704;44.768;2023-02-22T03:14:17;4.68;;;3.00;;
77888;SDS011;67082;41.704;44.768;2023-02-22T03:16:59;4.47;;;3.08;;
77888;SDS011;67082;41.704;44.768;2023-02-22T03:19:39;5.55;;;2.70;;
77888;SDS011;67082;41.704;44.768;2023-02-22T03:22:32;5.53;;;3.10;;
77888;SDS011;67082;41.704;44.768;2023-02-22T03:25:15;6.25;;;3.40;;
77888;SDS011;67082;41.704;44.768;2023-02-22T03:27:54;5.68;;;2.95;;
77888;SDS011;67082;41.704;44.768;2023-02-22T03:30:50;6.35;;;2.95;;
77888;SDS011;67082;41.704;44.768;2023-02-22T03:33:29;4.03;;;2.85;;
77888;SDS011;67082;41.704;44.768;2023-02-22T03:36:12;6.25;;;2.90;;
77888;SDS011;67082;41.704;44.768;2023-02-22T03:38:41;6.05;;;3.30;;
77888;SDS011;67082;41.704;44.768;2023-02-22T03:41:14;4.80;;;3.05;;
77888;SDS011;67082;41.704;44.768;2023-02-22T03:43:47;7.10;;;4.03;;
77888;SDS011;67082;41.704;44.768;2023-02-22T03:46:18;6.32;;;3.75;;
77888;SDS011;67082;41.704;44.768;2023-02-22T03:48:53;5.63;;;3.30;;
77888;SDS011;67082;41.704;44.768;2023-02-22T03:54:02;4.88;;;2.88;;
77888;SDS011;67082;41.704;44.768;2023-02-22T03:56:38;4.95;;;3.33;;
77888;SDS011;67082;41.704;44.768;2023-02-22T03:59:13;5.63;;;3.30;;
77888;SDS011;67082;41.704;44.768;2023-02-22T04:01:43;4.65;;;2.92;;
77888;SDS011;67082;41.704;44.768;2023-02-22T04:04:11;6.55;;;3.60;;
77888;SDS011;67082;41.704;44.768;2023-02-22T04:06:39;5.35;;;3.13;;
77888;SDS011;67082;41.704;44.768;2023-02-22T04:09:08;5.55;;;2.60;;
77888;SDS011;67082;41.704;44.768;2023-02-22T04:11:36;4.13;;;2.80;;
77888;SDS011;67082;41.704;44.768;2023-02-22T04:14:04;6.30;;;2.80;;
77888;SDS011;67082;41.704;44.768;2023-02-22T04:16:33;4.22;;;2.67;;
77888;SDS011;67082;41.704;44.768;2023-02-22T04:19:03;5.93;;;3.30;;
77888;SDS011;67082;41.704;44.768;2023-02-22T04:21:34;6.40;;;3.25;;
77888;SDS011;67082;41.704;44.768;2023-02-22T04:24:03;6.13;;;3.17;;
77888;SDS011;67082;41.704;44.768;2023-02-22T04:26:31;6.57;;;3.00;;
77888;SDS011;67082;41.704;44.768;2023-02-22T04:29:01;3.97;;;2.55;;
77888;SDS011;67082;41.704;44.768;2023-02-22T04:31:37;7.22;;;2.50;;
77888;SDS011;67082;41.704;44.768;2023-02-22T04:34:05;5.53;;;2.38;;
77888;SDS011;67082;41.704;44.768;2023-02-22T04:36:37;5.03;;;2.63;;
77888;SDS011;67082;41.704;44.768;2023-02-22T04:39:05;7.32;;;3.53;;
77888;SDS011;67082;41.704;44.768;2023-02-22T04:41:33;4.43;;;2.78;;
77888;SDS011;67082;41.704;44.768;2023-02-22T04:44:03;5.10;;;3.10;;
77888;SDS011;67082;41.704;44.768;2023-02-22T04:46:32;4.55;;;3.00;;
77888;SDS011;67082;41.704;44.768;2023-02-22T04:49:01;6.78;;;3.10;;
77888;SDS011;67082;41.704;44.768;2023-02-22T04:51:32;5.13;;;3.35;;
77888;SDS011;67082;41.704;44.768;2023-02-22T04:54:06;10.50;;;5.47;;
77888;SDS011;67082;41.704;44.768;2023-02-22T04:56:36;7.13;;;3.92;;
77888;SDS011;67082;41.704;44.768;2023-02-22T04:59:06;5.75;;;3.35;;
77888;SDS011;67082;41.704;44.768;2023-02-22T05:01:37;5.88;;;2.90;;
77888;SDS011;67082;41.704;44.768;2023-02-22T05:04:06;5.30;;;2.88;;
77888;SDS011;67082;41.704;44.768;2023-02-22T05:06:35;6.00;;;3.03;;
77888;SDS011;67082;41.704;44.768;2023-02-22T05:09:03;7.38;;;3.45;;
77888;SDS011;67082;41.704;44.768;2023-02-22T05:11:31;7.60;;;3.60;;
77888;SDS011;67082;41.704;44.768;2023-02-22T05:13:59;7.38;;;3.60;;
77888;SDS011;67082;41.704;44.768;2023-02-22T05:16:27;7.07;;;3.63;;
77888;SDS011;67082;41.704;44.768;2023-02-22T05:18:55;8.23;;;3.33;;
77888;SDS011;67082;41.704;44.768;2023-02-22T05:21:23;6.72;;;3.72;;
77888;SDS011;67082;41.704;44.768;2023-02-22T05:23:51;6.25;;;3.35;;
77888;SDS011;67082;41.704;44.768;2023-02-22T05:26:20;6.53;;;3.65;;
77888;SDS011;67082;41.704;44.768;2023-02-22T05:28:48;7.47;;;3.40;;
77888;SDS011;67082;41.704;44.768;2023-02-22T05:31:17;7.75;;;3.95;;
77888;SDS011;67082;41.704;44.768;2023-02-22T05:33:46;8.75;;;3.78;;
77888;SDS011;67082;41.704;44.768;2023-02-22T05:36:15;7.78;;;3.83;;
77888;SDS011;67082;41.704;44.768;2023-02-22T05:38:43;7.15;;;3.65;;
77888;SDS011;67082;41.704;44.768;2023-02-22T05:41:11;9.32;;;4.40;;
77888;SDS011;67082;41.704;44.768;2023-02-22T05:43:40;12.90;;;4.63;;
77888;SDS011;67082;41.704;44.768;2023-02-22T05:46:08;9.95;;;4.07;;
77888;SDS011;67082;41.704;44.768;2023-02-22T05:48:36;7.10;;;3.70;;
77888;SDS011;67082;41.704;44.768;2023-02-22T05:51:05;8.18;;;3.80;;
77888;SDS011;67082;41.704;44.768;2023-02-22T05:53:36;7.40;;;2.92;;
77888;SDS011;67082;41.704;44.768;2023-02-22T05:56:04;6.65;;;3.10;;
77888;SDS011;67082;41.704;44.768;2023-02-22T05:58:32;5.72;;;2.47;;
77888;SDS011;67082;41.704;44.768;2023-02-22T06:01:01;4.65;;;2.20;;
77888;SDS011;67082;41.704;44.768;2023-02-22T06:03:29;5.35;;;3.05;;
77888;SDS011;67082;41.704;44.768;2023-02-22T06:05:57;5.00;;;2.33;;
77888;SDS011;67082;41.704;44.768;2023-02-22T06:08:26;3.83;;;1.50;;
77888;SDS011;67082;41.704;44.768;2023-02-22T06:10:54;3.33;;;1.90;;
77888;SDS011;67082;41.704;44.768;2023-02-22T06:13:22;3.28;;;1.90;;
77888;SDS011;67082;41.704;44.768;2023-02-22T06:15:51;4.00;;;2.13;;
77888;SDS011;67082;41.704;44.768;2023-02-22T06:18:18;6.00;;;2.40;;
77888;SDS011;67082;41.704;44.768;2023-02-22T06:20:47;6.22;;;3.40;;
77888;SDS011;67082;41.704;44.768;2023-02-22T06:23:15;7.45;;;3.60;;
77888;SDS011;67082;41.704;44.768;2023-02-22T06:25:43;9.23;;;4.07;;
77888;SDS011;67082;41.704;44.768;2023-02-22T06:28:11;9.50;;;4.20;;
77888;SDS011;67082;41.704;44.768;2023-02-22T06:30:40;9.85;;;5.45;;
77888;SDS011;67082;41.704;44.768;2023-02-22T06:33:09;14.73;;;6.70;;
77888;SDS011;67082;41.704;44.768;2023-02-22T06:35:38;7.43;;;4.32;;
77888;SDS011;67082;41.704;44.768;2023-02-22T06:38:06;7.82;;;4.22;;
77888;SDS011;67082;41.704;44.768;2023-02-22T06:40:35;8.70;;;4.80;;
77888;SDS011;67082;41.704;44.768;2023-02-22T06:43:03;8.52;;;4.43;;
77888;SDS011;67082;41.704;44.768;2023-02-22T06:45:33;9.15;;;4.55;;
77888;SDS011;67082;41.704;44.768;2023-02-22T06:48:01;7.20;;;4.50;;
77888;SDS011;67082;41.704;44.768;2023-02-22T06:50:29;9.95;;;4.13;;
77888;SDS011;67082;41.704;44.768;2023-02-22T06:53:00;12.73;;;4.95;;
77888;SDS011;67082;41.704;44.768;2023-02-22T06:55:29;11.13;;;4.97;;
77888;SDS011;67082;41.704;44.768;2023-02-22T06:57:59;8.93;;;5.13;;
77888;SDS011;67082;41.704;44.768;2023-02-22T07:00:28;8.55;;;5.35;;
77888;SDS011;67082;41.704;44.768;2023-02-22T07:02:58;7.32;;;4.75;;
77888;SDS011;67082;41.704;44.768;2023-02-22T07:05:27;18.08;;;4.97;;
77888;SDS011;67082;41.704;44.768;2023-02-22T07:08:00;8.10;;;4.00;;
77888;SDS011;67082;41.704;44.768;2023-02-22T07:10:31;8.02;;;4.68;;
77888;SDS011;67082;41.704;44.768;2023-02-22T07:13:03;10.48;;;5.07;;
77888;SDS011;67082;41.704;44.768;2023-02-22T07:15:33;8.93;;;5.25;;
77888;SDS011;67082;41.704;44.768;2023-02-22T07:18:02;12.48;;;5.40;;
77888;SDS011;67082;41.704;44.768;2023-02-22T07:20:30;12.38;;;5.03;;
77888;SDS011;67082;41.704;44.768;2023-02-22T07:22:59;10.38;;;5.18;;
77888;SDS011;67082;41.704;44.768;2023-02-22T07:25:27;10.43;;;5.70;;
77888;SDS011;67082;41.704;44.768;2023-02-22T07:27:56;18.13;;;8.95;;
77888;SDS011;67082;41.704;44.768;2023-02-22T07:30:27;8.02;;;5.28;;
77888;SDS011;67082;41.704;44.768;2023-02-22T07:32:58;10.18;;;5.60;;
77888;SDS011;67082;41.704;44.768;2023-02-22T07:35:35;11.65;;;5.53;;
77888;SDS011;67082;41.704;44.768;2023-02-22T07:38:06;13.55;;;5.57;;
77888;SDS011;67082;41.704;44.768;2023-02-22T07:40:35;11.73;;;5.40;;
77888;SDS011;67082;41.704;44.768;2023-02-22T07:45:47;8.82;;;5.07;;
77888;SDS011;67082;41.704;44.768;2023-02-22T07:48:18;9.35;;;4.65;;
77888;SDS011;67082;41.704;44.768;2023-02-22T07:50:47;12.38;;;5.03;;
77888;SDS011;67082;41.704;44.768;2023-02-22T07:53:17;10.88;;;5.68;;
77888;SDS011;67082;41.704;44.768;2023-02-22T07:55:47;11.68;;;5.63;;
77888;SDS011;67082;41.704;44.768;2023-02-22T07:58:20;15.00;;;5.78;;
77888;SDS011;67082;41.704;44.768;2023-02-22T08:00:50;11.50;;;5.80;;
77888;SDS011;67082;41.704;44.768;2023-02-22T08:03:20;12.15;;;5.47;;
77888;SDS011;67082;41.704;44.768;2023-02-22T08:05:52;11.18;;;5.75;;
77888;SDS011;67082;41.704;44.768;2023-02-22T08:08:22;11.57;;;5.40;;
77888;SDS011;67082;41.704;44.768;2023-02-22T08:10:50;9.57;;;4.60;;
77888;SDS011;67082;41.704;44.768;2023-02-22T08:13:19;8.40;;;4.50;;
77888;SDS011;67082;41.704;44.768;2023-02-22T08:15:49;8.82;;;4.40;;
77888;SDS011;67082;41.704;44.768;2023-02-22T08:18:21;8.45;;;5.00;;
77888;SDS011;67082;41.704;44.768;2023-02-22T08:20:51;8.52;;;4.60;;
77888;SDS011;67082;41.704;44.768;2023-02-22T08:23:22;10.15;;;5.55;;
77888;SDS011;67082;41.704;44.768;2023-02-22T08:25:51;12.32;;;5.80;;
77888;SDS011;67082;41.704;44.768;2023-02-22T08:28:20;13.57;;;5.50;;
77888;SDS011;67082;41.704;44.768;2023-02-22T08:30:50;11.68;;;5.50;;
77888;SDS011;67082;41.704;44.768;2023-02-22T08:33:19;8.82;;;5.22;;
77888;SDS011;67082;41.704;44.768;2023-02-22T08:35:47;9.77;;;4.70;;
77888;SDS011;67082;41.704;44.768;2023-02-22T08:38:27;7.43;;;4.30;;
77888;SDS011;67082;41.704;44.768;2023-02-22T08:40:57;11.80;;;4.97;;
77888;SDS011;67082;41.704;44.768;2023-02-22T08:43:25;15.50;;;6.07;;
77888;SDS011;67082;41.704;44.768;2023-02-22T08:45:54;12.73;;;5.70;;
77888;SDS011;67082;41.704;44.768;2023-02-22T08:48:24;14.32;;;5.53;;
77888;SDS011;67082;41.704;44.768;2023-02-22T08:50:52;8.63;;;4.75;;
77888;SDS011;67082;41.704;44.768;2023-02-22T08:53:21;10.60;;;4.72;;
77888;SDS011;67082;41.704;44.768;2023-02-22T08:55:49;7.95;;;4.10;;
77888;SDS011;67082;41.704;44.768;2023-02-22T08:58:18;8.35;;;4.78;;
77888;SDS011;67082;41.704;44.768;2023-02-22T09:00:46;9.20;;;4.60;;
77888;SDS011;67082;41.704;44.768;2023-02-22T09:03:15;6.63;;;4.00;;
77888;SDS011;67082;41.704;44.768;2023-02-22T09:05:44;6.63;;;4.20;;
77888;SDS011;67082;41.704;44.768;2023-02-22T09:08:13;7.68;;;4.03;;
77888;SDS011;67082;41.704;44.768;2023-02-22T09:10:43;7.50;;;4.25;;
77888;SDS011;67082;41.704;44.768;2023-02-22T09:13:12;7.90;;;5.18;;
77888;SDS011;67082;41.704;44.768;2023-02-22T09:15:39;10.20;;;4.65;;
77888;SDS011;67082;41.704;44.768;2023-02-22T09:18:09;9.63;;;4.60;;
77888;SDS011;67082;41.704;44.768;2023-02-22T09:20:41;6.22;;;3.10;;
77888;SDS011;67082;41.704;44.768;2023-02-22T09:23:09;5.80;;;3.60;;
77888;SDS011;67082;41.704;44.768;2023-02-22T09:25:38;6.28;;;3.70;;
77888;SDS011;67082;41.704;44.768;2023-02-22T09:28:07;6.88;;;3.95;;
77888;SDS011;67082;41.704;44.768;2023-02-22T09:30:36;6.95;;;3.72;;
77888;SDS011;67082;41.704;44.768;2023-02-22T09:33:07;6.05;;;4.13;;
77888;SDS011;67082;41.704;44.768;2023-02-22T09:35:39;6.35;;;3.78;;
77888;SDS011;67082;41.704;44.768;2023-02-22T09:38:09;11.82;;;7.20;;
77888;SDS011;67082;41.704;44.768;2023-02-22T09:41:13;9.43;;;4.22;;
77888;SDS011;67082;41.704;44.768;2023-02-22T09:54:56;5.35;;;2.80;;
77888;SDS011;67082;41.704;44.768;2023-02-22T09:57:52;3.37;;;2.50;;
77888;SDS011;67082;41.704;44.768;2023-02-22T10:00:23;6.05;;;3.10;;
77888;SDS011;67082;41.704;44.768;2023-02-22T10:05:50;5.30;;;2.58;;
77888;SDS011;67082;41.704;44.768;2023-02-22T10:08:24;4.37;;;2.80;;
77888;SDS011;67082;41.704;44.768;2023-02-22T10:11:22;8.63;;;3.08;;
77888;SDS011;67082;41.704;44.768;2023-02-22T10:14:26;4.88;;;2.50;;
77888;SDS011;67082;41.704;44.768;2023-02-22T10:20:06;7.20;;;2.22;;
77888;SDS011;67082;41.704;44.768;2023-02-22T10:23:17;5.80;;;2.42;;
77888;SDS011;67082;41.704;44.768;2023-02-22T10:25:39;4.22;;;2.67;;
77888;SDS011;67082;41.704;44.768;2023-02-22T10:30:55;7.63;;;2.55;;
77888;SDS011;67082;41.704;44.768;2023-02-22T10:33:35;6.07;;;2.55;;
77888;SDS011;67082;41.704;44.768;2023-02-22T10:36:19;8.98;;;2.53;;
77888;SDS011;67082;41.704;44.768;2023-02-22T10:38:57;7.13;;;3.00;;
77888;SDS011;67082;41.704;44.768;2023-02-22T10:41:29;8.43;;;2.60;;
77888;SDS011;67082;41.704;44.768;2023-02-22T10:44:00;4.85;;;2.10;;
77888;SDS011;67082;41.704;44.768;2023-02-22T10:46:29;8.13;;;2.90;;
77888;SDS011;67082;41.704;44.768;2023-02-22T10:49:01;4.60;;;2.20;;
77888;SDS011;67082;41.704;44.768;2023-02-22T10:51:35;4.07;;;1.92;;
77888;SDS011;67082;41.704;44.768;2023-02-22T10:56:47;4.10;;;1.50;;
77888;SDS011;67082;41.704;44.768;2023-02-22T10:59:38;2.97;;;1.48;;
77888;SDS011;67082;41.704;44.768;2023-02-22T11:02:18;2.50;;;1.38;;
77888;SDS011;67082;41.704;44.768;2023-02-22T11:04:59;4.22;;;1.38;;
77888;SDS011;67082;41.704;44.768;2023-02-22T11:07:30;2.50;;;1.42;;
77888;SDS011;67082;41.704;44.768;2023-02-22T11:10:04;2.22;;;1.20;;
77888;SDS011;67082;41.704;44.768;2023-02-22T11:12:38;2.45;;;1.27;;
77888;SDS011;67082;41.704;44.768;2023-02-22T11:17:43;1.98;;;0.80;;
77888;SDS011;67082;41.704;44.768;2023-02-22T11:20:21;3.28;;;0.80;;
77888;SDS011;67082;41.704;44.768;2023-02-22T11:22:52;0.90;;;0.60;;
77888;SDS011;67082;41.704;44.768;2023-02-22T11:25:24;1.15;;;0.73;;
77888;SDS011;67082;41.704;44.768;2023-02-22T11:28:21;1.40;;;0.68;;
77888;SDS011;67082;41.704;44.768;2023-02-22T11:31:20;9.55;;;4.80;;
77888;SDS011;67082;41.704;44.768;2023-02-22T11:33:51;1.90;;;0.80;;
77888;SDS011;67082;41.704;44.768;2023-02-22T11:36:28;1.77;;;0.90;;
77888;SDS011;67082;41.704;44.768;2023-02-22T11:41:56;4.13;;;0.80;;
77888;SDS011;67082;41.704;44.768;2023-02-22T11:46:59;1.95;;;0.70;;
77888;SDS011;67082;41.704;44.768;2023-02-22T11:49:37;4.35;;;0.70;;
77888;SDS011;67082;41.704;44.768;2023-02-22T11:52:14;1.13;;;0.63;;
77888;SDS011;67082;41.704;44.768;2023-02-22T11:54:56;2.28;;;0.80;;
77888;SDS011;67082;41.704;44.768;2023-02-22T11:58:15;2.08;;;0.70;;
77888;SDS011;67082;41.704;44.768;2023-02-22T12:23:15;3.15;;;0.73;;
77888;SDS011;67082;41.704;44.768;2023-02-22T12:26:07;1.33;;;0.73;;
77888;SDS011;67082;41.704;44.768;2023-02-22T12:28:57;2.38;;;0.95;;
77888;SDS011;67082;41.704;44.768;2023-02-22T12:31:36;4.25;;;1.52;;
77888;SDS011;67082;41.704;44.768;2023-02-22T12:36:50;5.88;;;1.33;;
77888;SDS011;67082;41.704;44.768;2023-02-22T12:42:32;3.20;;;;;
77888;SDS011;67082;41.704;44.768;2023-02-22T12:48:45;3.88;;;1.38;;
77888;SDS011;67082;41.704;44.768;2023-02-22T12:51:38;2.60;;;1.33;;
77888;SDS011;67082;41.704;44.768;2023-02-22T13:03:37;2.63;;;1.40;;
77888;SDS011;67082;41.704;44.768;2023-02-22T13:06:25;4.82;;;1.92;;
77888;SDS011;67082;41.704;44.768;2023-02-22T13:09:27;5.35;;;1.92;;
77888;SDS011;67082;41.704;44.768;2023-02-22T13:12:15;5.40;;;1.63;;
77888;SDS011;67082;41.704;44.768;2023-02-22T13:18:11;5.07;;;2.00;;
77888;SDS011;67082;41.704;44.768;2023-02-22T13:20:50;4.57;;;1.90;;
77888;SDS011;67082;41.704;44.768;2023-02-22T13:26:03;4.05;;;1.67;;
77888;SDS011;67082;41.704;44.768;2023-02-22T13:29:12;5.03;;;2.13;;
77888;SDS011;67082;41.704;44.768;2023-02-22T13:52:27;5.43;;;2.00;;
77888;SDS011;67082;41.704;44.768;2023-02-22T13:55:03;4.10;;;2.20;;
77888;SDS011;67082;41.704;44.768;2023-02-22T13:57:41;4.13;;;2.10;;
77888;SDS011;67082;41.704;44.768;2023-02-22T14:03:05;9.20;;;2.35;;
77888;SDS011;67082;41.704;44.768;2023-02-22T14:18:31;4.68;;;2.38;;
77888;SDS011;67082;41.704;44.768;2023-02-22T14:21:06;5.53;;;2.95;;
77888;SDS011;67082;41.704;44.768;2023-02-22T14:26:10;9.85;;;2.80;;
77888;SDS011;67082;41.704;44.768;2023-02-22T14:31:55;9.88;;;3.67;;
77888;SDS011;67082;41.704;44.768;2023-02-22T14:37:25;9.75;;;2.60;;
77888;SDS011;67082;41.704;44.768;2023-02-22T14:42:42;3.50;;;1.52;;
77888;SDS011;67082;41.704;44.768;2023-02-22T14:48:04;6.00;;;1.50;;
77888;SDS011;67082;41.704;44.768;2023-02-22T14:51:01;3.05;;;1.40;;
77888;SDS011;67082;41.704;44.768;2023-02-22T14:58:54;3.72;;;1.60;;
77888;SDS011;67082;41.704;44.768;2023-02-22T15:01:35;6.75;;;1.90;;
77888;SDS011;67082;41.704;44.768;2023-02-22T15:04:23;6.50;;;1.90;;
77888;SDS011;67082;41.704;44.768;2023-02-22T15:06:53;3.90;;;1.48;;
77888;SDS011;67082;41.704;44.768;2023-02-22T15:09:24;4.20;;;1.98;;
77888;SDS011;67082;41.704;44.768;2023-02-22T15:14:33;4.43;;;2.08;;
77888;SDS011;67082;41.704;44.768;2023-02-22T15:17:21;5.10;;;1.70;;
77888;SDS011;67082;41.704;44.768;2023-02-22T15:19:51;7.85;;;2.22;;
77888;SDS011;67082;41.704;44.768;2023-02-22T15:22:22;3.38;;;1.80;;
77888;SDS011;67082;41.704;44.768;2023-02-22T15:25:00;4.20;;;2.17;;
77888;SDS011;67082;41.704;44.768;2023-02-22T15:27:30;7.32;;;2.47;;
77888;SDS011;67082;41.704;44.768;2023-02-22T15:30:08;4.30;;;2.10;;
77888;SDS011;67082;41.704;44.768;2023-02-22T15:32:54;5.70;;;2.22;;
77888;SDS011;67082;41.704;44.768;2023-02-22T15:35:31;3.55;;;1.98;;
77888;SDS011;67082;41.704;44.768;2023-02-22T15:40:37;13.50;;;6.75;;
77888;SDS011;67082;41.704;44.768;2023-02-22T15:43:20;5.35;;;2.35;;
77888;SDS011;67082;41.704;44.768;2023-02-22T15:45:50;4.78;;;2.30;;
77888;SDS011;67082;41.704;44.768;2023-02-22T15:48:19;3.03;;;2.00;;
77888;SDS011;67082;41.704;44.768;2023-02-22T15:56:15;5.47;;;2.60;;
77888;SDS011;67082;41.704;44.768;2023-02-22T15:58:58;6.85;;;2.60;;
77888;SDS011;67082;41.704;44.768;2023-02-22T16:01:30;25.77;;;9.80;;
77888;SDS011;67082;41.704;44.768;2023-02-22T16:04:15;4.95;;;2.40;;
77888;SDS011;67082;41.704;44.768;2023-02-22T16:06:46;5.53;;;2.60;;
77888;SDS011;67082;41.704;44.768;2023-02-22T16:09:18;8.98;;;2.63;;
77888;SDS011;67082;41.704;44.768;2023-02-22T16:12:07;6.13;;;2.53;;
77888;SDS011;67082;41.704;44.768;2023-02-22T16:14:39;5.32;;;2.40;;
77888;SDS011;67082;41.704;44.768;2023-02-22T16:19:52;6.43;;;2.50;;
77888;SDS011;67082;41.704;44.768;2023-02-22T16:22:26;5.30;;;2.47;;
77888;SDS011;67082;41.704;44.768;2023-02-22T16:25:11;7.10;;;2.30;;
77888;SDS011;67082;41.704;44.768;2023-02-22T16:27:55;4.88;;;2.22;;
77888;SDS011;67082;41.704;44.768;2023-02-22T16:30:29;4.90;;;2.15;;
77888;SDS011;67082;41.704;44.768;2023-02-22T16:33:02;4.30;;;2.55;;
77888;SDS011;67082;41.704;44.768;2023-02-22T16:35:36;10.15;;;2.97;;
77888;SDS011;67082;41.704;44.768;2023-02-22T16:38:04;4.95;;;2.33;;
77888;SDS011;67082;41.704;44.768;2023-02-22T16:40:37;7.25;;;3.08;;
77888;SDS011;67082;41.704;44.768;2023-02-22T16:43:11;4.20;;;2.17;;
77888;SDS011;67082;41.704;44.768;2023-02-22T16:45:44;4.97;;;2.30;;
77888;SDS011;67082;41.704;44.768;2023-02-22T16:48:20;4.05;;;2.00;;
77888;SDS011;67082;41.704;44.768;2023-02-22T16:50:54;4.13;;;2.30;;
77888;SDS011;67082;41.704;44.768;2023-02-22T16:53:26;6.80;;;2.30;;
77888;SDS011;67082;41.704;44.768;2023-02-22T16:56:01;4.18;;;2.00;;
77888;SDS011;67082;41.704;44.768;2023-02-22T16:58:32;4.88;;;2.35;;
77888;SDS011;67082;41.704;44.768;2023-02-22T17:01:04;4.20;;;2.53;;
77888;SDS011;67082;41.704;44.768;2023-02-22T17:03:32;4.70;;;2.88;;
77888;SDS011;67082;41.704;44.768;2023-02-22T17:06:01;8.75;;;3.70;;
77888;SDS011;67082;41.704;44.768;2023-02-22T17:08:30;6.85;;;2.65;;
77888;SDS011;67082;41.704;44.768;2023-02-22T17:10:59;5.10;;;2.50;;
77888;SDS011;67082;41.704;44.768;2023-02-22T17:13:27;3.40;;;1.90;;
77888;SDS011;67082;41.704;44.768;2023-02-22T17:15:57;3.83;;;2.20;;
77888;SDS011;67082;41.704;44.768;2023-02-22T17:18:28;6.40;;;2.58;;
77888;SDS011;67082;41.704;44.768;2023-02-22T17:21:00;4.95;;;2.30;;
77888;SDS011;67082;41.704;44.768;2023-02-22T17:23:29;5.03;;;2.15;;
77888;SDS011;67082;41.704;44.768;2023-02-22T17:26:01;4.38;;;2.20;;
77888;SDS011;67082;41.704;44.768;2023-02-22T17:28:30;7.18;;;2.40;;
77888;SDS011;67082;41.704;44.768;2023-02-22T17:30:58;6.45;;;2.33;;
77888;SDS011;67082;41.704;44.768;2023-02-22T17:33:29;4.57;;;2.17;;
77888;SDS011;67082;41.704;44.768;2023-02-22T17:36:00;4.72;;;2.30;;
77888;SDS011;67082;41.704;44.768;2023-02-22T17:38:30;3.63;;;1.95;;
77888;SDS011;67082;41.704;44.768;2023-02-22T17:40:58;4.00;;;2.40;;
77888;SDS011;67082;41.704;44.768;2023-02-22T17:43:29;4.50;;;2.38;;
77888;SDS011;67082;41.704;44.768;2023-02-22T17:45:57;6.20;;;1.80;;
77888;SDS011;67082;41.704;44.768;2023-02-22T17:48:25;4.85;;;2.20;;
77888;SDS011;67082;41.704;44.768;2023-02-22T17:50:54;6.00;;;2.00;;
77888;SDS011;67082;41.704;44.768;2023-02-22T17:53:22;3.03;;;1.40;;
77888;SDS011;67082;41.704;44.768;2023-02-22T17:55:52;4.22;;;1.88;;
77888;SDS011;67082;41.704;44.768;2023-02-22T17:58:20;5.43;;;2.28;;
77888;SDS011;67082;41.704;44.768;2023-02-22T18:00:50;3.05;;;1.60;;